Time;durP1;ratioP1;P1;durP2;ratioP2;P2;SDS_P1;SDS_P2;PMS_P1;PMS_P2;Temp;Humidity;BMP_temperature;BMP_pressure;BME280_temperature;BME280_humidity;BME280_pressure;Samples;Min_cycle;Max_cycle;Signal;HPM_P1;HPM_P2
2022/09/24 00:02:05;;;;;;;6.13;2.38;;;21.40;71.00;;;;;;4090433;28;20106;-47
2022/09/24 00:04:28;;;;;;;3.90;2.20;;;21.30;70.60;;;;;;4092401;28;20031;-51
2022/09/24 00:06:50;;;;;;;3.33;2.00;;;21.30;70.60;;;;;;4091368;28;20109;-47
2022/09/24 00:09:16;;;;;;;3.33;1.85;;;21.30;70.70;;;;;;4092248;28;20039;-45
2022/09/24 00:11:38;;;;;;;3.35;1.92;;;21.30;69.80;;;;;;4095212;28;20047;-50
2022/09/24 00:14:01;;;;;;;3.55;1.92;;;21.30;69.30;;;;;;4093418;28;20118;-48
2022/09/24 00:16:26;;;;;;;3.58;1.90;;;21.30;68.80;;;;;;4092037;28;20039;-49
2022/09/24 00:18:49;;;;;;;2.42;1.50;;;21.30;68.70;;;;;;4090736;28;20054;-46
2022/09/24 00:21:26;;;;;;;3.78;1.73;;;21.30;69.00;;;;;;4085798;28;20055;-45
2022/09/24 00:23:51;;;;;;;11.65;1.80;;;21.30;70.10;;;;;;4087253;28;20040;-45
2022/09/24 00:28:54;;;;;;;5.82;1.73;;;21.40;70.70;;;;;;4083943;28;20059;-48
2022/09/24 00:31:17;;;;;;;4.18;1.55;;;21.40;69.90;;;;;;4080321;28;20148;-49
2022/09/24 00:33:40;;;;;;;5.73;2.10;;;21.40;69.50;;;;;;4080746;28;20058;-50
2022/09/24 00:36:04;;;;;;;3.15;1.77;;;21.40;69.60;;;;;;4081393;28;20285;-50
2022/09/24 00:38:28;;;;;;;5.57;2.53;;;21.40;69.60;;;;;;4089443;28;20043;-49
2022/09/24 00:40:51;;;;;;;4.32;1.70;;;21.40;69.60;;;;;;4088606;28;20043;-48
2022/09/24 00:43:35;;;;;;;5.13;1.95;;;21.40;69.40;;;;;;4087794;28;20047;-46
2022/09/24 00:46:21;;;;;;;2.90;1.48;;;21.40;69.40;;;;;;4085164;28;20051;-45
2022/09/24 00:48:46;;;;;;;5.05;1.67;;;21.40;69.30;;;;;;4095928;28;20051;-46
2022/09/24 00:51:13;;;;;;;3.58;1.60;;;21.40;69.10;;;;;;4095527;28;20066;-48
2022/09/24 00:53:35;;;;;;;4.53;1.80;;;21.40;69.00;;;;;;4095081;28;20162;-44
2022/09/24 00:56:00;;;;;;;2.75;1.73;;;21.40;68.80;;;;;;4086635;28;20094;-47
2022/09/24 00:58:23;;;;;;;2.17;1.30;;;21.40;68.80;;;;;;4086645;28;20110;-44
2022/09/24 01:00:46;;;;;;;2.50;1.23;;;21.40;68.70;;;;;;4091120;28;20419;-51
2022/09/24 01:03:21;;;;;;;4.65;1.75;;;21.40;69.10;;;;;;4089646;28;20054;-46
2022/09/24 01:05:44;;;;;;;3.10;1.40;;;21.40;68.40;;;;;;4087196;28;20130;-47
2022/09/24 01:08:11;;;;;;;2.63;1.23;;;21.30;68.40;;;;;;4087998;28;20048;-48
2022/09/24 01:10:59;;;;;;;2.90;1.40;;;21.30;68.40;;;;;;4094334;28;20478;-48
2022/09/24 01:13:33;;;;;;;3.10;1.20;;;21.30;68.50;;;;;;4091860;28;20047;-48
2022/09/24 01:16:08;;;;;;;2.40;1.10;;;21.30;68.50;;;;;;4090506;28;20054;-46
2022/09/24 01:19:04;;;;;;;2.28;1.13;;;21.30;68.60;;;;;;4086679;28;20038;-46
2022/09/24 01:21:44;;;;;;;1.88;1.05;;;21.30;68.60;;;;;;4086530;28;20419;-46
2022/09/24 01:24:24;;;;;;;12.15;1.20;;;21.30;68.50;;;;;;4089958;28;20043;-48
2022/09/24 01:26:55;;;;;;;1.92;1.00;;;21.30;68.50;;;;;;4091096;28;20403;-47
2022/09/24 01:29:52;;;;;;;2.40;1.20;;;21.40;68.50;;;;;;4090514;28;20169;-44
2022/09/24 01:32:25;;;;;;;1.58;1.02;;;21.40;68.50;;;;;;4093151;28;20047;-48
2022/09/24 01:35:14;;;;;;;3.38;1.23;;;21.40;68.60;;;;;;4091129;28;20102;-48
2022/09/24 01:37:41;;;;;;;1.70;1.00;;;21.40;68.60;;;;;;4090801;28;20126;-46
2022/09/24 01:40:05;;;;;;;1.85;0.75;;;21.40;68.60;;;;;;4089993;28;20047;-45
2022/09/24 01:42:30;;;;;;;1.63;0.93;;;21.40;68.60;;;;;;4090112;28;20539;-45
2022/09/24 01:44:54;;;;;;;2.17;0.90;;;21.40;68.60;;;;;;4090215;28;20089;-46
2022/09/24 01:47:38;;;;;;;1.50;1.00;;;21.40;68.50;;;;;;4089163;28;20480;-50
2022/09/24 01:50:02;;;;;;;0.70;0.60;;;21.40;68.50;;;;;;4090927;28;20112;-45
2022/09/24 01:52:31;;;;;;;1.90;1.02;;;21.40;68.50;;;;;;4087714;28;20051;-47
2022/09/24 01:54:57;;;;;;;1.13;0.73;;;21.40;68.50;;;;;;4090492;28;20039;-47
2022/09/24 01:57:35;;;;;;;1.90;0.80;;;21.40;68.40;;;;;;4089953;28;20499;-44
2022/09/24 02:00:08;;;;;;;0.90;0.70;;;21.40;68.40;;;;;;4092165;28;20106;-44
2022/09/24 02:02:34;;;;;;;1.70;0.60;;;21.40;69.10;;;;;;4092316;28;20388;-44
2022/09/24 02:05:11;;;;;;;1.35;0.65;;;21.40;68.40;;;;;;4092871;28;20047;-46
2022/09/24 02:08:08;;;;;;;1.42;0.70;;;21.40;68.40;;;;;;4085951;28;20422;-45
2022/09/24 02:10:36;;;;;;;1.15;0.63;;;21.40;69.00;;;;;;4094595;28;20480;-47
2022/09/24 02:13:06;;;;;;;0.88;0.60;;;21.40;68.30;;;;;;4081377;28;20412;-47
2022/09/24 02:15:33;;;;;;;1.10;0.50;;;21.40;68.30;;;;;;4087450;28;20039;-47
2022/09/24 02:17:59;;;;;;;1.65;0.80;;;21.40;68.40;;;;;;4086390;28;20079;-45
2022/09/24 02:20:25;;;;;;;1.35;0.50;;;21.40;68.30;;;;;;4088475;28;20041;-44
2022/09/24 02:22:50;;;;;;;1.38;0.70;;;21.40;68.30;;;;;;4093268;28;20039;-50
2022/09/24 02:25:18;;;;;;;1.45;0.77;;;21.40;68.30;;;;;;4083527;28;20147;-46
2022/09/24 02:27:42;;;;;;;1.73;0.77;;;21.40;68.30;;;;;;4102810;28;20030;-43
2022/09/24 02:30:07;;;;;;;0.50;0.50;;;21.40;68.30;;;;;;4086539;28;20062;-46
2022/09/24 02:32:33;;;;;;;0.85;0.50;;;21.40;68.30;;;;;;4084943;28;20183;-47
2022/09/24 02:35:00;;;;;;;0.73;0.55;;;21.40;68.30;;;;;;4093334;28;20050;-46
2022/09/24 02:37:24;;;;;;;0.47;0.47;;;21.40;68.40;;;;;;4082005;28;20563;-45
2022/09/24 02:39:48;;;;;;;1.00;0.60;;;21.40;68.40;;;;;;4084947;28;20039;-49
2022/09/24 02:42:13;;;;;;;0.47;0.47;;;21.40;68.30;;;;;;4088174;28;20086;-46
2022/09/24 02:44:36;;;;;;;1.27;0.75;;;21.40;68.30;;;;;;4094159;28;20047;-46
2022/09/24 02:46:59;;;;;;;1.20;0.60;;;21.40;68.30;;;;;;4091864;28;20107;-46
2022/09/24 02:49:22;;;;;;;0.40;0.40;;;21.40;68.30;;;;;;4090264;28;20046;-44
2022/09/24 02:51:45;;;;;;;0.63;0.45;;;21.40;68.20;;;;;;4087002;28;20432;-47
2022/09/24 02:54:08;;;;;;;2.47;0.70;;;21.40;68.30;;;;;;4092259;28;20053;-52
2022/09/24 02:56:31;;;;;;;0.75;0.50;;;21.40;68.20;;;;;;4078479;28;20044;-45
2022/09/24 02:58:54;;;;;;;1.05;0.70;;;21.40;68.20;;;;;;4094244;28;20539;-48
2022/09/24 03:01:16;;;;;;;0.75;0.60;;;21.40;68.20;;;;;;4086575;28;20118;-49
2022/09/24 03:03:39;;;;;;;0.77;0.50;;;21.40;68.00;;;;;;4083904;28;20048;-46
2022/09/24 03:06:01;;;;;;;0.65;0.43;;;21.30;68.00;;;;;;4081598;28;20048;-45
2022/09/24 03:08:25;;;;;;;0.60;0.60;;;21.30;67.90;;;;;;4091417;28;20122;-49
2022/09/24 03:10:49;;;;;;;0.82;0.60;;;21.30;68.00;;;;;;4092204;28;20039;-48
2022/09/24 03:13:12;;;;;;;1.58;0.50;;;21.30;67.90;;;;;;4083514;28;20086;-45
2022/09/24 03:15:35;;;;;;;1.90;0.55;;;21.30;68.00;;;;;;4085950;28;20039;-44
2022/09/24 03:17:58;;;;;;;1.25;0.70;;;21.30;68.00;;;;;;4091775;28;20061;-45
2022/09/24 03:20:20;;;;;;;0.75;0.45;;;21.30;68.00;;;;;;4088645;28;20157;-46
2022/09/24 03:22:43;;;;;;;0.50;0.40;;;21.30;68.00;;;;;;4092609;28;20504;-46
2022/09/24 03:25:06;;;;;;;0.60;0.43;;;21.30;68.00;;;;;;4090788;28;20080;-47
2022/09/24 03:27:29;;;;;;;1.13;0.77;;;21.30;68.10;;;;;;4086360;28;20492;-49
2022/09/24 03:32:32;;;;;;;0.98;0.50;;;21.30;67.80;;;;;;4084743;28;20052;-48
2022/09/24 03:34:55;;;;;;;0.65;0.50;;;21.30;67.80;;;;;;4088379;28;20122;-46
2022/09/24 03:37:18;;;;;;;0.68;0.50;;;21.30;67.70;;;;;;4085305;28;20054;-49
2022/09/24 03:39:40;;;;;;;0.93;0.63;;;21.30;67.70;;;;;;4088150;28;20484;-46
2022/09/24 03:42:03;;;;;;;0.75;0.52;;;21.30;67.70;;;;;;4083618;28;20139;-44
2022/09/24 03:44:26;;;;;;;0.98;0.65;;;21.30;68.30;;;;;;4093060;28;20039;-45
2022/09/24 03:46:48;;;;;;;1.10;0.70;;;21.30;67.80;;;;;;4085546;28;20051;-45
2022/09/24 03:49:11;;;;;;;0.85;0.70;;;21.30;67.80;;;;;;4080907;28;20042;-49
2022/09/24 03:51:34;;;;;;;0.65;0.50;;;21.30;67.70;;;;;;4084329;28;20550;-47
2022/09/24 03:53:56;;;;;;;0.38;0.32;;;21.30;67.70;;;;;;4081564;28;20055;-46
2022/09/24 03:56:19;;;;;;;1.00;0.65;;;21.30;67.70;;;;;;4089058;28;20059;-50
2022/09/24 03:58:46;;;;;;;1.33;0.50;;;21.30;67.80;;;;;;4084426;28;20050;-51
2022/09/24 04:01:11;;;;;;;0.57;0.30;;;21.20;67.80;;;;;;4089417;28;20117;-44
2022/09/24 04:03:35;;;;;;;1.00;0.70;;;21.20;67.80;;;;;;4087348;28;20523;-50
2022/09/24 04:05:57;;;;;;;2.15;0.90;;;21.20;67.80;;;;;;4082269;28;20594;-48
2022/09/24 04:08:22;;;;;;;0.70;0.47;;;21.20;67.90;;;;;;4086098;28;20426;-49
2022/09/24 04:10:49;;;;;;;0.73;0.50;;;21.20;68.00;;;;;;4079683;28;20062;-46
2022/09/24 04:13:12;;;;;;;0.50;0.50;;;21.20;68.00;;;;;;4089731;28;20392;-48
2022/09/24 04:15:35;;;;;;;0.90;0.43;;;21.20;68.10;;;;;;4084942;28;20412;-47
2022/09/24 04:17:59;;;;;;;0.65;0.50;;;21.20;68.10;;;;;;4084002;28;20487;-49
2022/09/24 04:20:23;;;;;;;0.82;0.50;;;21.20;68.10;;;;;;4084820;28;20043;-51
2022/09/24 04:22:46;;;;;;;0.45;0.45;;;21.20;68.10;;;;;;4089693;28;20046;-47
2022/09/24 04:25:08;;;;;;;1.13;0.52;;;21.20;68.00;;;;;;4081406;28;20043;-48
2022/09/24 04:27:31;;;;;;;0.30;0.30;;;21.20;68.00;;;;;;4086397;28;20486;-44
2022/09/24 04:29:54;;;;;;;0.60;0.40;;;21.20;68.00;;;;;;4085438;28;20055;-47
2022/09/24 04:32:16;;;;;;;0.52;0.40;;;21.20;68.00;;;;;;4085098;28;20070;-49
2022/09/24 04:34:39;;;;;;;0.85;0.50;;;21.20;67.90;;;;;;4087326;28;20189;-47
2022/09/24 04:37:01;;;;;;;0.52;0.40;;;21.20;67.90;;;;;;4085305;28;20456;-45
2022/09/24 04:39:26;;;;;;;1.33;0.60;;;21.20;67.80;;;;;;4079831;28;20035;-45
2022/09/24 04:41:48;;;;;;;0.50;0.35;;;21.20;67.80;;;;;;4087206;28;20134;-46
2022/09/24 04:44:12;;;;;;;1.10;0.50;;;21.30;67.80;;;;;;4085711;28;20057;-48
2022/09/24 04:46:34;;;;;;;0.43;0.40;;;21.30;67.80;;;;;;4083097;28;20312;-45
2022/09/24 04:48:57;;;;;;;0.65;0.60;;;21.20;67.70;;;;;;4083694;28;20043;-47
2022/09/24 04:51:20;;;;;;;0.68;0.50;;;21.30;67.80;;;;;;4076404;28;20047;-46
2022/09/24 04:53:44;;;;;;;0.40;0.40;;;21.30;67.70;;;;;;4081351;28;20488;-44
2022/09/24 04:56:10;;;;;;;;;;;21.30;67.60;;;;;;4093015;28;20336;-46
2022/09/24 04:58:33;;;;;;;0.85;0.50;;;21.30;67.70;;;;;;4087849;28;20009;-44
2022/09/24 05:00:56;;;;;;;1.58;0.60;;;21.30;67.60;;;;;;4087546;28;20420;-46
2022/09/24 05:03:20;;;;;;;1.00;0.60;;;21.30;67.40;;;;;;4094820;28;20047;-46
2022/09/24 05:05:42;;;;;;;0.50;0.50;;;21.40;67.30;;;;;;4095253;28;20039;-49
2022/09/24 05:08:05;;;;;;;0.65;0.60;;;21.30;67.30;;;;;;4087890;28;20044;-44
2022/09/24 05:10:30;;;;;;;0.50;0.40;;;21.30;67.30;;;;;;4088627;28;20031;-47
2022/09/24 05:12:53;;;;;;;1.00;0.70;;;21.30;67.30;;;;;;4087653;28;20479;-48
2022/09/24 05:15:18;;;;;;;0.60;0.50;;;21.30;67.20;;;;;;4088911;28;20047;-45
2022/09/24 05:17:41;;;;;;;1.40;0.63;;;21.30;67.20;;;;;;4091807;28;20039;-46
2022/09/24 05:20:04;;;;;;;0.63;0.47;;;21.30;67.20;;;;;;4096526;28;20400;-47
2022/09/24 05:22:26;;;;;;;1.58;0.70;;;21.30;67.30;;;;;;4088881;28;20125;-50
2022/09/24 05:24:49;;;;;;;2.08;0.80;;;21.30;67.20;;;;;;4082843;28;20031;-51
2022/09/24 05:27:12;;;;;;;0.80;0.65;;;21.30;67.10;;;;;;4088221;28;20511;-46
2022/09/24 05:29:38;;;;;;;1.75;0.80;;;21.30;67.00;;;;;;4087117;28;20039;-50
2022/09/24 05:32:04;;;;;;;2.47;0.98;;;21.20;66.60;;;;;;4081213;28;20528;-45
2022/09/24 05:34:28;;;;;;;4.00;1.38;;;21.20;66.40;;;;;;4083942;28;20035;-49
2022/09/24 05:36:50;;;;;;;1.35;0.88;;;21.20;66.20;;;;;;4080659;28;20047;-49
2022/09/24 05:39:13;;;;;;;2.45;1.15;;;21.20;65.90;;;;;;4085419;28;20031;-49
2022/09/24 05:41:35;;;;;;;2.20;1.15;;;21.10;65.50;;;;;;4078642;28;20141;-49
2022/09/24 05:43:58;;;;;;;2.60;1.35;;;21.10;65.20;;;;;;4084815;28;20495;-52
2022/09/24 05:46:21;;;;;;;2.90;1.23;;;21.10;65.20;;;;;;4086262;28;20038;-49
2022/09/24 05:48:43;;;;;;;2.00;1.08;;;21.10;65.10;;;;;;4085641;28;20063;-50
2022/09/24 05:51:06;;;;;;;3.65;1.60;;;21.10;65.20;;;;;;4083651;28;20062;-46
2022/09/24 05:53:29;;;;;;;2.95;1.40;;;21.10;65.40;;;;;;4082767;28;20520;-47
2022/09/24 05:55:51;;;;;;;1.70;1.15;;;21.00;65.40;;;;;;4084324;28;20035;-50
2022/09/24 05:58:14;;;;;;;2.70;1.42;;;21.00;65.40;;;;;;4083342;28;20059;-49
2022/09/24 06:00:37;;;;;;;2.58;1.45;;;21.00;65.60;;;;;;4084619;28;20043;-52
2022/09/24 06:03:13;;;;;;;3.58;1.38;;;21.00;65.70;;;;;;4079936;28;20071;-53
2022/09/24 06:05:36;;;;;;;3.63;1.05;;;21.10;65.80;;;;;;4077238;28;20071;-52
2022/09/24 06:07:58;;;;;;;2.30;1.27;;;21.10;65.90;;;;;;4081206;28;20047;-46
2022/09/24 06:10:21;;;;;;;2.50;1.38;;;21.20;65.70;;;;;;4079106;28;20035;-47
2022/09/24 06:12:44;;;;;;;3.00;1.20;;;21.20;65.60;;;;;;4079387;28;20043;-47
2022/09/24 06:15:07;;;;;;;2.23;1.30;;;21.30;65.60;;;;;;4086159;28;20455;-46
2022/09/24 06:17:31;;;;;;;2.60;1.42;;;21.30;65.50;;;;;;4078802;28;20341;-48
2022/09/24 06:19:54;;;;;;;2.30;1.13;;;21.30;65.50;;;;;;4084516;28;20070;-47
2022/09/24 06:22:17;;;;;;;3.65;1.83;;;21.30;65.50;;;;;;4079533;28;20457;-49
2022/09/24 06:24:40;;;;;;;2.63;1.40;;;21.30;65.50;;;;;;4087876;28;20491;-45
2022/09/24 06:27:02;;;;;;;3.65;2.00;;;21.20;65.50;;;;;;4084924;28;20588;-49
2022/09/24 06:29:25;;;;;;;5.00;1.67;;;21.20;66.20;;;;;;4084767;28;20164;-48
2022/09/24 06:31:47;;;;;;;2.40;1.40;;;21.20;65.70;;;;;;4075679;28;20070;-49
2022/09/24 06:34:10;;;;;;;2.70;1.42;;;21.10;65.60;;;;;;4082157;28;20138;-46
2022/09/24 06:36:34;;;;;;;3.10;1.60;;;21.10;65.50;;;;;;4081640;28;20070;-46
2022/09/24 06:38:57;;;;;;;4.32;1.60;;;21.10;65.50;;;;;;4088490;28;20039;-48
2022/09/24 06:41:21;;;;;;;3.33;1.58;;;21.10;65.40;;;;;;4079241;28;20035;-50
2022/09/24 06:43:43;;;;;;;3.90;1.50;;;21.10;65.40;;;;;;4078450;28;20043;-51
2022/09/24 06:46:06;;;;;;;4.80;1.52;;;21.00;65.30;;;;;;4085972;28;20377;-51
2022/09/24 06:48:30;;;;;;;3.00;1.50;;;21.00;65.30;;;;;;4081943;28;20136;-48
2022/09/24 06:50:53;;;;;;;2.92;1.45;;;21.00;65.30;;;;;;4085405;28;20811;-50
2022/09/24 06:53:17;;;;;;;3.47;1.63;;;21.00;65.40;;;;;;4076239;28;20518;-53
2022/09/24 06:55:40;;;;;;;3.50;1.58;;;21.00;65.40;;;;;;4077496;28;20514;-52
2022/09/24 06:58:08;;;;;;;4.03;1.70;;;20.90;65.40;;;;;;4077532;28;20050;-52
2022/09/24 07:00:31;;;;;;;3.70;2.20;;;20.90;65.50;;;;;;4078079;28;20409;-48
2022/09/24 07:02:53;;;;;;;5.03;1.77;;;20.90;65.60;;;;;;4081541;28;20043;-49
2022/09/24 07:05:16;;;;;;;3.92;1.75;;;20.90;65.70;;;;;;4084070;28;20138;-46
2022/09/24 07:07:40;;;;;;;3.10;1.58;;;20.90;65.80;;;;;;4083730;28;20042;-45
2022/09/24 07:10:06;;;;;;;3.47;1.73;;;20.90;65.90;;;;;;4083783;28;20039;-49
2022/09/24 07:12:33;;;;;;;3.67;1.70;;;20.90;66.00;;;;;;4071647;28;20146;-52
2022/09/24 07:14:57;;;;;;;2.17;1.48;;;20.90;66.10;;;;;;4076766;28;20043;-51
2022/09/24 07:17:19;;;;;;;2.42;1.58;;;20.80;66.10;;;;;;4077598;28;20118;-50
2022/09/24 07:19:42;;;;;;;4.15;1.52;;;20.80;66.30;;;;;;4086076;28;20074;-48
2022/09/24 07:22:05;;;;;;;3.88;1.50;;;20.90;66.40;;;;;;4080077;28;20588;-45
2022/09/24 07:24:27;;;;;;;2.42;1.48;;;20.90;66.50;;;;;;4086433;28;20043;-49
2022/09/24 07:26:50;;;;;;;2.67;1.60;;;20.80;66.50;;;;;;4084548;28;20305;-52
2022/09/24 07:29:13;;;;;;;3.30;1.55;;;20.80;66.60;;;;;;4082564;28;20657;-46
2022/09/24 07:31:36;;;;;;;2.50;1.48;;;20.80;66.70;;;;;;4077163;28;20066;-49
2022/09/24 07:33:58;;;;;;;3.03;1.63;;;20.90;66.80;;;;;;4078459;28;20056;-50
2022/09/24 07:36:21;;;;;;;2.20;1.35;;;20.80;66.80;;;;;;4080511;28;20135;-53
2022/09/24 07:38:45;;;;;;;3.37;1.40;;;20.80;66.80;;;;;;4079429;28;20039;-48
2022/09/24 07:41:08;;;;;;;5.80;2.10;;;20.80;66.90;;;;;;4082403;28;20270;-50
2022/09/24 07:43:32;;;;;;;3.38;1.75;;;20.80;67.00;;;;;;4077265;28;20043;-52
2022/09/24 07:45:55;;;;;;;2.30;1.70;;;20.70;67.00;;;;;;4096540;28;20039;-48
2022/09/24 07:48:18;;;;;;;2.73;1.63;;;20.70;67.10;;;;;;4083401;28;20043;-52
2022/09/24 07:50:42;;;;;;;4.22;1.80;;;20.80;67.10;;;;;;4084194;28;20325;-47
2022/09/24 07:53:05;;;;;;;3.33;1.85;;;20.70;67.10;;;;;;4079472;28;20118;-49
2022/09/24 07:55:28;;;;;;;3.28;1.52;;;20.70;67.20;;;;;;4076831;28;20468;-48
2022/09/24 07:57:52;;;;;;;4.60;1.80;;;20.70;67.20;;;;;;4082232;28;20035;-47
2022/09/24 08:00:18;;;;;;;3.47;1.70;;;20.70;67.20;;;;;;4080097;28;20074;-48
2022/09/24 08:02:41;;;;;;;2.72;1.70;;;20.70;67.30;;;;;;4074989;28;20046;-46
2022/09/24 08:05:04;;;;;;;3.28;1.85;;;20.70;67.40;;;;;;4086702;28;20567;-50
2022/09/24 08:07:27;;;;;;;2.42;1.70;;;20.70;67.40;;;;;;4086219;28;20039;-50
2022/09/24 08:09:50;;;;;;;4.20;2.25;;;20.70;67.40;;;;;;4076935;28;20469;-51
2022/09/24 08:12:12;;;;;;;4.28;1.98;;;20.70;67.40;;;;;;4084282;28;20102;-46
2022/09/24 08:14:35;;;;;;;4.35;1.83;;;20.70;67.50;;;;;;4088475;28;20406;-45
2022/09/24 08:16:57;;;;;;;2.22;1.33;;;20.70;67.50;;;;;;4089467;28;20156;-46
2022/09/24 08:19:20;;;;;;;3.53;1.75;;;20.60;67.60;;;;;;4085389;28;20126;-46
2022/09/24 08:21:43;;;;;;;3.70;1.92;;;20.70;67.70;;;;;;4080318;28;20408;-48
2022/09/24 08:24:05;;;;;;;3.33;1.95;;;20.70;67.70;;;;;;4091103;28;20058;-45
2022/09/24 08:26:28;;;;;;;4.03;1.80;;;20.60;67.70;;;;;;4090685;28;20034;-49
2022/09/24 08:28:50;;;;;;;4.00;1.92;;;20.60;67.80;;;;;;4088716;28;20150;-50
2022/09/24 08:31:13;;;;;;;3.25;1.83;;;20.70;67.80;;;;;;4088777;28;20093;-49
2022/09/24 08:33:36;;;;;;;3.85;1.80;;;20.60;67.80;;;;;;4090334;28;20134;-46
2022/09/24 08:36:00;;;;;;;2.80;2.10;;;20.60;68.50;;;;;;4076328;28;20050;-46
2022/09/24 08:38:22;;;;;;;7.40;2.10;;;20.60;67.90;;;;;;4086465;28;20451;-52
2022/09/24 08:41:11;;;;;;;4.45;2.17;;;20.60;68.00;;;;;;4088387;28;20428;-48
2022/09/24 08:43:58;;;;;;;3.88;1.98;;;20.60;68.00;;;;;;4084348;28;20054;-47
2022/09/24 08:49:31;;;;;;;4.20;2.35;;;20.60;68.10;;;;;;4082662;28;20425;-49
2022/09/24 08:52:21;;;;;;;3.85;2.25;;;20.50;68.10;;;;;;4089330;28;20378;-47
2022/09/24 08:54:46;;;;;;;4.80;2.50;;;20.50;68.20;;;;;;4083306;28;20046;-50
2022/09/24 08:57:16;;;;;;;6.47;2.40;;;20.60;68.30;;;;;;4083727;28;20051;-48
2022/09/24 08:59:44;;;;;;;4.75;2.58;;;20.60;68.30;;;;;;4088585;28;20031;-46
2022/09/24 09:02:27;;;;;;;5.47;2.97;;;20.50;68.30;;;;;;4082919;28;20039;-46
2022/09/24 09:05:11;;;;;;;5.77;2.30;;;20.50;68.30;;;;;;4085889;28;20157;-45
2022/09/24 09:07:55;;;;;;;3.75;2.40;;;20.50;68.30;;;;;;4092822;29;20122;-48
2022/09/24 09:10:37;;;;;;;3.90;2.45;;;20.50;68.30;;;;;;4088125;28;20114;-47
2022/09/24 09:13:10;;;;;;;5.60;2.42;;;20.50;68.30;;;;;;4081361;28;20118;-46
2022/09/24 09:15:38;;;;;;;4.72;2.60;;;20.50;68.30;;;;;;4074968;28;20042;-50
2022/09/24 09:18:13;;;;;;;3.47;2.28;;;20.50;68.90;;;;;;4081796;28;20126;-46
2022/09/24 09:20:41;;;;;;;4.93;2.50;;;20.50;68.30;;;;;;4081535;28;20118;-45
2022/09/24 09:23:12;;;;;;;4.63;2.40;;;20.50;68.30;;;;;;4087222;28;20046;-52
2022/09/24 09:25:36;;;;;;;3.65;2.47;;;20.50;68.40;;;;;;4081123;28;20044;-52
2022/09/24 09:28:16;;;;;;;4.05;2.45;;;20.50;68.40;;;;;;4085227;28;20075;-50
2022/09/24 09:30:52;;;;;;;4.07;2.25;;;20.50;68.40;;;;;;4084025;28;20043;-49
2022/09/24 09:33:45;;;;;;;2.85;2.10;;;20.40;68.30;;;;;;4078254;28;20051;-49
2022/09/24 09:36:17;;;;;;;4.95;2.25;;;20.40;68.30;;;;;;4080196;28;20039;-50
2022/09/24 09:38:45;;;;;;;4.43;2.55;;;20.40;68.30;;;;;;4077669;28;20039;-45
2022/09/24 09:41:40;;;;;;;4.32;2.40;;;20.40;68.30;;;;;;4079093;28;20488;-51
2022/09/24 09:44:24;;;;;;;5.03;2.35;;;20.40;68.30;;;;;;4082670;28;20066;-49
2022/09/24 09:46:57;;;;;;;4.57;2.13;;;20.40;68.40;;;;;;4080696;28;20043;-48
2022/09/24 09:49:21;;;;;;;4.93;2.42;;;20.40;68.40;;;;;;4082878;28;20094;-47
2022/09/24 09:51:49;;;;;;;3.38;2.40;;;20.40;68.40;;;;;;4086008;28;20098;-45
2022/09/24 09:54:11;;;;;;;4.78;2.15;;;20.40;68.40;;;;;;4085316;28;20055;-47
2022/09/24 09:56:37;;;;;;;5.10;2.42;;;20.40;68.40;;;;;;4086170;28;20047;-45
2022/09/24 09:59:12;;;;;;;4.25;2.30;;;20.40;68.50;;;;;;4082291;28;20054;-48
2022/09/24 10:01:39;;;;;;;2.53;1.75;;;20.40;68.40;;;;;;4086811;28;20459;-47
2022/09/24 10:04:03;;;;;;;3.75;2.50;;;20.40;68.40;;;;;;4085516;28;20426;-47
2022/09/24 10:06:30;;;;;;;3.08;2.10;;;20.40;68.50;;;;;;4071006;29;20495;-45
2022/09/24 10:08:54;;;;;;;2.65;1.83;;;20.30;68.40;;;;;;4086671;28;20043;-53
2022/09/24 10:11:17;;;;;;;3.10;2.00;;;20.30;68.30;;;;;;4061259;28;20650;-51
2022/09/24 10:13:40;;;;;;;2.83;1.83;;;20.30;68.40;;;;;;4085936;28;20134;-48
2022/09/24 10:16:09;;;;;;;3.53;2.40;;;20.30;68.40;;;;;;4078883;28;20039;-47
2022/09/24 10:18:41;;;;;;;3.45;1.90;;;20.30;68.40;;;;;;4085836;28;20039;-49
2022/09/24 10:21:11;;;;;;;4.47;2.30;;;20.30;68.40;;;;;;4086070;28;20495;-49
2022/09/24 10:23:40;;;;;;;3.15;2.17;;;20.30;68.40;;;;;;4086727;28;20039;-49
2022/09/24 10:26:04;;;;;;;3.13;2.17;;;20.30;68.40;;;;;;4088041;28;20046;-48
2022/09/24 10:31:18;;;;;;;2.80;2.20;;;20.30;68.40;;;;;;4087810;28;20039;-48
2022/09/24 10:33:43;;;;;;;3.35;2.17;;;20.30;68.50;;;;;;4087501;28;20236;-47
2022/09/24 10:36:13;;;;;;;4.10;2.30;;;20.20;68.40;;;;;;4082266;28;20405;-50
2022/09/24 10:38:36;;;;;;;3.40;1.90;;;20.20;68.40;;;;;;4086441;28;20701;-49
2022/09/24 10:41:00;;;;;;;3.13;2.35;;;20.20;68.40;;;;;;4088004;28;20090;-47
2022/09/24 10:43:22;;;;;;;4.18;1.90;;;20.20;68.40;;;;;;4087925;28;20082;-49
2022/09/24 10:46:03;;;;;;;2.53;1.70;;;20.20;68.40;;;;;;4082822;28;20046;-50
2022/09/24 10:48:41;;;;;;;2.88;1.77;;;20.20;68.50;;;;;;4080150;28;20042;-49
2022/09/24 10:51:16;;;;;;;3.22;2.17;;;20.20;68.50;;;;;;4086334;28;20047;-50
2022/09/24 10:54:15;;;;;;;2.47;1.85;;;20.20;68.50;;;;;;4081551;28;20054;-49
2022/09/24 10:56:49;;;;;;;2.35;1.65;;;20.20;68.50;;;;;;4084739;28;20469;-48
2022/09/24 10:59:17;;;;;;;2.67;1.70;;;20.20;68.50;;;;;;4086863;28;20448;-49
2022/09/24 11:01:51;;;;;;;2.88;1.70;;;20.20;68.60;;;;;;4079218;28;20131;-49
2022/09/24 11:04:38;;;;;;;2.80;2.03;;;20.20;68.60;;;;;;4084152;28;20043;-48
2022/09/24 11:07:31;;;;;;;2.83;1.50;;;20.10;68.60;;;;;;4083953;28;20047;-50
2022/09/24 11:09:54;;;;;;;2.20;1.60;;;20.10;68.60;;;;;;4085663;28;20039;-51
2022/09/24 11:12:23;;;;;;;2.13;1.52;;;20.10;68.60;;;;;;4085581;28;20563;-50
2022/09/24 11:15:13;;;;;;;2.67;1.67;;;20.10;68.60;;;;;;4078462;28;20488;-49
2022/09/24 11:18:10;;;;;;;2.75;1.80;;;20.10;68.60;;;;;;4090066;28;20523;-50
2022/09/24 11:20:45;;;;;;;2.70;1.63;;;20.10;68.60;;;;;;4089395;28;20044;-46
2022/09/24 11:23:14;;;;;;;2.35;1.67;;;20.10;68.70;;;;;;4090174;28;20412;-48
2022/09/24 11:25:41;;;;;;;2.20;1.55;;;20.10;68.70;;;;;;4090073;28;20050;-46
2022/09/24 11:28:18;;;;;;;2.13;1.35;;;20.10;68.70;;;;;;4106390;28;20039;-46
2022/09/24 11:31:17;;;;;;;2.53;1.77;;;20.10;68.70;;;;;;4092401;28;20479;-46
2022/09/24 11:33:48;;;;;;;2.63;1.67;;;20.10;68.70;;;;;;4082473;28;20558;-45
2022/09/24 11:36:29;;;;;;;2.45;1.75;;;20.10;68.80;;;;;;4087024;28;20035;-50
2022/09/24 11:39:16;;;;;;;2.90;1.60;;;20.00;68.80;;;;;;4090008;28;20039;-47
2022/09/24 11:42:20;;;;;;;1.95;1.20;;;20.00;68.80;;;;;;4090761;28;20039;-49
2022/09/24 11:44:58;;;;;;;2.33;1.58;;;20.00;68.80;;;;;;4087858;28;20047;-50
2022/09/24 11:47:41;;;;;;;3.35;1.75;;;20.00;68.90;;;;;;4088280;28;20411;-49
2022/09/24 11:50:23;;;;;;;2.25;1.48;;;20.00;68.90;;;;;;4090919;28;20035;-48
2022/09/24 11:52:56;;;;;;;2.00;1.40;;;20.00;68.90;;;;;;4088731;28;20055;-47
2022/09/24 11:55:24;;;;;;;2.58;1.48;;;20.00;69.00;;;;;;4090620;28;20147;-47
2022/09/24 11:57:54;;;;;;;4.85;1.70;;;20.00;69.30;;;;;;4084768;28;20130;-44
2022/09/24 12:00:21;;;;;;;7.75;1.80;;;20.00;69.60;;;;;;4087484;28;20122;-45
2022/09/24 12:02:51;;;;;;;4.38;1.40;;;20.00;69.60;;;;;;4083670;28;20076;-50
2022/09/24 12:05:25;;;;;;;3.65;1.38;;;20.00;69.50;;;;;;4081957;28;20071;-45
2022/09/24 12:07:54;;;;;;;3.30;1.40;;;20.00;69.60;;;;;;4081886;29;20122;-47
2022/09/24 12:10:23;;;;;;;4.45;1.55;;;20.00;69.60;;;;;;4078876;28;20194;-47
2022/09/24 12:12:49;;;;;;;2.60;1.13;;;20.00;69.60;;;;;;4078725;28;20424;-46
2022/09/24 12:15:22;;;;;;;2.40;1.10;;;20.00;69.70;;;;;;4081233;28;20032;-48
2022/09/24 12:18:01;;;;;;;1.83;1.30;;;20.10;69.70;;;;;;4078287;28;20071;-48
2022/09/24 12:20:32;;;;;;;3.95;1.27;;;20.10;69.60;;;;;;4085524;28;20035;-51
2022/09/24 12:23:16;;;;;;;2.63;1.65;;;20.10;69.90;;;;;;4086884;28;20142;-52
2022/09/24 12:25:44;;;;;;;2.75;1.80;;;20.10;69.10;;;;;;4092751;28;20038;-51
2022/09/24 12:32:53;;;;;;;2.47;1.70;;;20.10;68.80;;;;;;4089154;28;20039;-51
2022/09/24 12:33:58;;;;;;;11.40;2.63;;;20.00;68.70;;;;;;4083575;28;20664;-46
2022/09/24 12:36:37;;;;;;;8.05;2.15;;;20.00;69.20;;;;;;4086838;28;20074;-49
2022/09/24 12:39:11;;;;;;;21.80;2.67;;;20.00;69.40;;;;;;4088460;28;20105;-45
2022/09/24 12:41:43;;;;;;;5.82;1.92;;;20.00;69.60;;;;;;4083053;28;20052;-46
2022/09/24 12:44:12;;;;;;;6.35;1.58;;;20.00;69.60;;;;;;4082694;28;20050;-46
2022/09/24 12:46:49;;;;;;;3.08;1.90;;;20.10;70.00;;;;;;4085455;28;20103;-48
2022/09/24 12:49:34;;;;;;;3.92;2.00;;;20.10;70.20;;;;;;4084621;28;20046;-48
2022/09/24 12:52:03;;;;;;;6.45;1.75;;;20.10;70.20;;;;;;4085954;28;20046;-44
2022/09/24 12:54:32;;;;;;;2.17;1.40;;;20.10;70.20;;;;;;4094184;28;20043;-44
2022/09/24 12:57:15;;;;;;;2.85;1.58;;;20.10;70.20;;;;;;4088017;28;20051;-47
2022/09/24 12:59:52;;;;;;;2.63;1.55;;;20.10;70.30;;;;;;4089791;28;20539;-46
2022/09/24 13:02:24;;;;;;;2.67;1.60;;;20.10;70.20;;;;;;4086706;28;20358;-48
2022/09/24 13:05:11;;;;;;;2.33;1.35;;;20.10;70.30;;;;;;4089067;28;20601;-46
2022/09/24 13:07:40;;;;;;;3.47;1.58;;;20.10;70.20;;;;;;4089452;28;20035;-44